sensor_id;sensor_type;location;lat;lon;timestamp;pressure;altitude;pressure_sealevel;temperature;humidity
48204;BME280;33994;50.998;5.864;2022-10-31T00:02:14;101592.03;;;14.68;91.67
48204;BME280;33994;50.998;5.864;2022-10-31T00:05:00;101590.28;;;14.68;91.73
48204;BME280;33994;50.998;5.864;2022-10-31T00:07:45;101588.53;;;14.67;92.04
48204;BME280;33994;50.998;5.864;2022-10-31T00:10:30;101585.94;;;14.66;92.01
48204;BME280;33994;50.998;5.864;2022-10-31T00:13:16;101571.88;;;14.64;92.16
48204;BME280;33994;50.998;5.864;2022-10-31T00:16:01;101570.22;;;14.61;92.36
48204;BME280;33994;50.998;5.864;2022-10-31T00:18:51;101567.56;;;14.61;92.53
48204;BME280;33994;50.998;5.864;2022-10-31T00:21:36;101573.72;;;14.60;92.48
48204;BME280;33994;50.998;5.864;2022-10-31T00:24:22;101584.31;;;14.57;92.60
48204;BME280;33994;50.998;5.864;2022-10-31T00:27:07;101571.28;;;14.51;92.64
48204;BME280;33994;50.998;5.864;2022-10-31T00:29:53;101571.31;;;14.48;92.89
48204;BME280;33994;50.998;5.864;2022-10-31T00:32:39;101573.19;;;14.43;93.24
48204;BME280;33994;50.998;5.864;2022-10-31T00:35:24;101571.50;;;14.39;93.50
48204;BME280;33994;50.998;5.864;2022-10-31T00:38:10;101570.66;;;14.36;93.80
48204;BME280;33994;50.998;5.864;2022-10-31T00:40:55;101565.44;;;14.33;93.98
48204;BME280;33994;50.998;5.864;2022-10-31T00:43:42;101557.56;;;14.33;94.09
48204;BME280;33994;50.998;5.864;2022-10-31T00:46:27;101551.47;;;14.31;94.26
48204;BME280;33994;50.998;5.864;2022-10-31T00:49:13;101559.47;;;14.25;94.46
48204;BME280;33994;50.998;5.864;2022-10-31T00:51:58;101563.00;;;14.24;94.55
48204;BME280;33994;50.998;5.864;2022-10-31T00:54:44;101569.25;;;14.19;94.75
48204;BME280;33994;50.998;5.864;2022-10-31T00:57:30;101563.19;;;14.15;95.05
48204;BME280;33994;50.998;5.864;2022-10-31T01:00:15;101567.63;;;14.11;95.46
48204;BME280;33994;50.998;5.864;2022-10-31T01:03:02;101572.06;;;14.08;95.75
48204;BME280;33994;50.998;5.864;2022-10-31T01:05:59;101582.66;;;14.05;96.16
48204;BME280;33994;50.998;5.864;2022-10-31T01:08:46;101574.75;;;14.05;96.40
48204;BME280;33994;50.998;5.864;2022-10-31T01:11:31;101572.16;;;14.02;96.74
48204;BME280;33994;50.998;5.864;2022-10-31T01:14:17;101573.03;;;14.02;96.45
48204;BME280;33994;50.998;5.864;2022-10-31T01:17:02;101569.53;;;14.02;96.44
48204;BME280;33994;50.998;5.864;2022-10-31T01:19:48;101572.22;;;13.99;96.61
48204;BME280;33994;50.998;5.864;2022-10-31T01:22:34;101566.97;;;13.99;96.70
48204;BME280;33994;50.998;5.864;2022-10-31T01:25:19;101566.09;;;13.98;96.78
48204;BME280;33994;50.998;5.864;2022-10-31T01:28:06;101565.28;;;13.95;97.26
48204;BME280;33994;50.998;5.864;2022-10-31T01:30:52;101565.28;;;13.95;96.89
48204;BME280;33994;50.998;5.864;2022-10-31T01:33:37;101559.16;;;13.94;96.92
48204;BME280;33994;50.998;5.864;2022-10-31T01:36:32;101563.50;;;13.95;97.09
48204;BME280;33994;50.998;5.864;2022-10-31T01:39:18;101566.22;;;13.92;97.18
48204;BME280;33994;50.998;5.864;2022-10-31T01:42:04;101562.72;;;13.90;97.23
48204;BME280;33994;50.998;5.864;2022-10-31T01:45:09;101566.22;;;13.91;97.54
48204;BME280;33994;50.998;5.864;2022-10-31T01:47:55;101561.81;;;13.93;97.15
48204;BME280;33994;50.998;5.864;2022-10-31T01:50:40;101563.56;;;13.94;97.17
48204;BME280;33994;50.998;5.864;2022-10-31T01:53:26;101561.81;;;13.93;97.08
48204;BME280;33994;50.998;5.864;2022-10-31T01:56:13;101552.22;;;13.90;97.15
48204;BME280;33994;50.998;5.864;2022-10-31T01:59:01;101555.75;;;13.89;97.06
48204;BME280;33994;50.998;5.864;2022-10-31T02:01:51;101552.25;;;13.87;97.13
48204;BME280;33994;50.998;5.864;2022-10-31T02:04:38;101547.03;;;13.85;97.20
48204;BME280;33994;50.998;5.864;2022-10-31T02:07:27;101549.75;;;13.79;97.20
48204;BME280;33994;50.998;5.864;2022-10-31T02:10:16;101547.19;;;13.76;97.35
48204;BME280;33994;50.998;5.864;2022-10-31T02:13:05;101541.09;;;13.74;97.59
48204;BME280;33994;50.998;5.864;2022-10-31T02:15:55;101545.50;;;13.74;97.56
48204;BME280;33994;50.998;5.864;2022-10-31T02:18:41;101551.66;;;13.71;97.75
48204;BME280;33994;50.998;5.864;2022-10-31T02:24:39;101550.06;;;13.61;98.50
48204;BME280;33994;50.998;5.864;2022-10-31T02:30:23;101553.59;;;13.60;98.76
48204;BME280;33994;50.998;5.864;2022-10-31T02:39:21;101543.19;;;13.54;99.23
48204;BME280;33994;50.998;5.864;2022-10-31T03:11:31;101533.69;;;13.42;99.41
48204;BME280;33994;50.998;5.864;2022-10-31T03:14:24;101528.47;;;13.41;99.26
48204;BME280;33994;50.998;5.864;2022-10-31T03:17:50;101516.25;;;13.36;99.34
48204;BME280;33994;50.998;5.864;2022-10-31T03:20:42;101519.78;;;13.35;99.46
48204;BME280;33994;50.998;5.864;2022-10-31T03:23:30;101522.50;;;13.31;99.54
48204;BME280;33994;50.998;5.864;2022-10-31T03:26:17;101519.03;;;13.27;99.80
48204;BME280;33994;50.998;5.864;2022-10-31T03:29:05;101511.16;;;13.27;99.69
48204;BME280;33994;50.998;5.864;2022-10-31T03:34:40;101515.56;;;13.25;100.00
48204;BME280;33994;50.998;5.864;2022-10-31T03:37:29;101519.00;;;13.29;100.00
48204;BME280;33994;50.998;5.864;2022-10-31T03:40:19;101512.03;;;13.26;99.71
48204;BME280;33994;50.998;5.864;2022-10-31T03:43:10;101510.31;;;13.25;99.84
48204;BME280;33994;50.998;5.864;2022-10-31T03:45:59;101512.09;;;13.23;99.73
48204;BME280;33994;50.998;5.864;2022-10-31T03:48:45;101508.63;;;13.21;99.58
48204;BME280;33994;50.998;5.864;2022-10-31T03:52:05;101513.94;;;13.17;100.00
48204;BME280;33994;50.998;5.864;2022-10-31T03:54:59;101520.00;;;13.22;99.98
48204;BME280;33994;50.998;5.864;2022-10-31T03:57:54;101515.59;;;13.22;99.89
48204;BME280;33994;50.998;5.864;2022-10-31T04:00:44;101515.59;;;13.22;99.63
48204;BME280;33994;50.998;5.864;2022-10-31T04:03:33;101526.97;;;13.24;99.57
48204;BME280;33994;50.998;5.864;2022-10-31T04:06:21;101518.28;;;13.18;99.45
48204;BME280;33994;50.998;5.864;2022-10-31T04:09:08;101510.41;;;13.18;99.40
48204;BME280;33994;50.998;5.864;2022-10-31T04:11:55;101512.25;;;13.12;99.64
48204;BME280;33994;50.998;5.864;2022-10-31T04:14:52;101508.75;;;13.12;99.63
48204;BME280;33994;50.998;5.864;2022-10-31T04:17:42;101520.16;;;13.09;99.63
48204;BME280;33994;50.998;5.864;2022-10-31T04:20:35;101521.03;;;13.10;99.48
48204;BME280;33994;50.998;5.864;2022-10-31T04:23:25;101519.31;;;13.09;99.67
48204;BME280;33994;50.998;5.864;2022-10-31T04:26:12;101523.66;;;13.10;99.56
48204;BME280;33994;50.998;5.864;2022-10-31T04:28:57;101528.06;;;13.09;99.45
48204;BME280;33994;50.998;5.864;2022-10-31T04:31:45;101521.94;;;13.07;99.49
48204;BME280;33994;50.998;5.864;2022-10-31T04:34:30;101512.41;;;13.02;99.56
48204;BME280;33994;50.998;5.864;2022-10-31T04:37:16;101508.91;;;13.01;99.54
48204;BME280;33994;50.998;5.864;2022-10-31T04:40:02;101513.25;;;13.02;99.53
48204;BME280;33994;50.998;5.864;2022-10-31T04:43:07;101501.03;;;13.01;99.46
48204;BME280;33994;50.998;5.864;2022-10-31T04:45:52;101502.81;;;12.99;99.45
48204;BME280;33994;50.998;5.864;2022-10-31T04:48:38;101508.09;;;12.98;99.33
48204;BME280;33994;50.998;5.864;2022-10-31T04:51:24;101503.72;;;12.97;99.62
48204;BME280;33994;50.998;5.864;2022-10-31T04:54:10;101505.44;;;13.01;99.46
48204;BME280;33994;50.998;5.864;2022-10-31T04:57:04;101493.13;;;13.03;99.30
48204;BME280;33994;50.998;5.864;2022-10-31T04:59:49;101501.88;;;13.03;99.20
48204;BME280;33994;50.998;5.864;2022-10-31T05:02:42;101512.41;;;13.02;99.28
48204;BME280;33994;50.998;5.864;2022-10-31T05:05:30;101506.28;;;13.00;99.16
48204;BME280;33994;50.998;5.864;2022-10-31T05:08:18;101494.97;;;12.96;99.12
48204;BME280;33994;50.998;5.864;2022-10-31T05:11:07;101496.75;;;12.93;99.06
48204;BME280;33994;50.998;5.864;2022-10-31T05:13:52;101491.63;;;12.86;99.08
48204;BME280;33994;50.998;5.864;2022-10-31T05:17:03;101481.19;;;12.80;99.32
48204;BME280;33994;50.998;5.864;2022-10-31T05:20:23;101482.97;;;12.78;99.49
48204;BME280;33994;50.998;5.864;2022-10-31T05:23:28;101485.56;;;12.80;99.47
48204;BME280;33994;50.998;5.864;2022-10-31T05:26:13;101489.97;;;12.79;99.39
48204;BME280;33994;50.998;5.864;2022-10-31T05:28:59;101485.59;;;12.78;99.28
48204;BME280;33994;50.998;5.864;2022-10-31T05:31:44;101490.00;;;12.76;99.18
48204;BME280;33994;50.998;5.864;2022-10-31T05:34:45;101490.00;;;12.76;99.19
48204;BME280;33994;50.998;5.864;2022-10-31T05:37:50;101490.97;;;12.71;99.27
48204;BME280;33994;50.998;5.864;2022-10-31T05:40:36;101484.88;;;12.67;99.39
48204;BME280;33994;50.998;5.864;2022-10-31T05:43:21;101485.81;;;12.61;99.35
48204;BME280;33994;50.998;5.864;2022-10-31T05:46:07;101481.50;;;12.59;99.52
48204;BME280;33994;50.998;5.864;2022-10-31T05:49:11;101469.25;;;12.56;99.46
48204;BME280;33994;50.998;5.864;2022-10-31T05:52:15;101474.50;;;12.56;99.54
48204;BME280;33994;50.998;5.864;2022-10-31T05:55:08;101465.78;;;12.56;99.39
48204;BME280;33994;50.998;5.864;2022-10-31T05:57:55;101465.78;;;12.56;99.23
48204;BME280;33994;50.998;5.864;2022-10-31T06:00:41;101467.53;;;12.54;99.08
48204;BME280;33994;50.998;5.864;2022-10-31T06:03:28;101464.94;;;12.52;99.04
48204;BME280;33994;50.998;5.864;2022-10-31T06:06:14;101461.47;;;12.50;98.97
48204;BME280;33994;50.998;5.864;2022-10-31T06:09:00;101452.75;;;12.48;98.92
48204;BME280;33994;50.998;5.864;2022-10-31T06:11:47;101458.03;;;12.45;98.89
48204;BME280;33994;50.998;5.864;2022-10-31T06:14:38;101451.94;;;12.45;99.00
48204;BME280;33994;50.998;5.864;2022-10-31T06:17:25;101457.19;;;12.45;99.12
48204;BME280;33994;50.998;5.864;2022-10-31T06:20:39;101463.22;;;12.51;98.93
48204;BME280;33994;50.998;5.864;2022-10-31T06:23:25;101460.59;;;12.51;99.01
48204;BME280;33994;50.998;5.864;2022-10-31T06:26:26;101459.66;;;12.54;99.07
48204;BME280;33994;50.998;5.864;2022-10-31T06:29:12;101458.81;;;12.55;99.12
48204;BME280;33994;50.998;5.864;2022-10-31T06:32:16;101457.16;;;12.48;98.85
48204;BME280;33994;50.998;5.864;2022-10-31T06:35:03;101457.19;;;12.43;99.14
48204;BME280;33994;50.998;5.864;2022-10-31T06:37:54;101460.72;;;12.39;99.23
48204;BME280;33994;50.998;5.864;2022-10-31T06:41:06;101452.84;;;12.40;99.53
48204;BME280;33994;50.998;5.864;2022-10-31T06:44:01;101449.41;;;12.37;99.40
48204;BME280;33994;50.998;5.864;2022-10-31T06:47:06;101459.00;;;12.39;99.66
48204;BME280;33994;50.998;5.864;2022-10-31T06:49:51;101466.88;;;12.39;99.75
48204;BME280;33994;50.998;5.864;2022-10-31T06:52:40;101466.88;;;12.39;99.64
48204;BME280;33994;50.998;5.864;2022-10-31T06:55:26;101469.50;;;12.39;99.50
48204;BME280;33994;50.998;5.864;2022-10-31T06:58:12;101470.34;;;12.38;99.32
48204;BME280;33994;50.998;5.864;2022-10-31T07:01:00;101478.22;;;12.38;99.46
48204;BME280;33994;50.998;5.864;2022-10-31T07:03:45;101476.47;;;12.39;99.30
48204;BME280;33994;50.998;5.864;2022-10-31T07:06:31;101479.97;;;12.39;99.28
48204;BME280;33994;50.998;5.864;2022-10-31T07:09:16;101483.47;;;12.38;99.50
48204;BME280;33994;50.998;5.864;2022-10-31T07:12:02;101475.59;;;12.40;99.41
48204;BME280;33994;50.998;5.864;2022-10-31T07:14:49;101480.78;;;12.43;99.48
48204;BME280;33994;50.998;5.864;2022-10-31T07:17:35;101476.34;;;12.50;99.47
48204;BME280;33994;50.998;5.864;2022-10-31T07:20:21;101476.31;;;12.53;99.28
48204;BME280;33994;50.998;5.864;2022-10-31T07:23:09;101471.84;;;12.58;98.92
48204;BME280;33994;50.998;5.864;2022-10-31T07:25:58;101469.19;;;12.62;98.71
48204;BME280;33994;50.998;5.864;2022-10-31T07:28:50;101475.28;;;12.64;98.49
48204;BME280;33994;50.998;5.864;2022-10-31T07:31:39;101479.63;;;12.67;98.23
48204;BME280;33994;50.998;5.864;2022-10-31T07:34:32;101480.47;;;12.69;97.92
48204;BME280;33994;50.998;5.864;2022-10-31T07:37:36;101484.84;;;12.70;97.72
48204;BME280;33994;50.998;5.864;2022-10-31T07:40:23;101476.06;;;12.71;97.48
48204;BME280;33994;50.998;5.864;2022-10-31T07:43:11;101481.28;;;12.74;97.28
48204;BME280;33994;50.998;5.864;2022-10-31T07:46:17;101485.69;;;12.72;97.28
48204;BME280;33994;50.998;5.864;2022-10-31T07:49:21;101496.16;;;12.74;97.10
48204;BME280;33994;50.998;5.864;2022-10-31T07:52:47;101490.84;;;12.77;97.07
48204;BME280;33994;50.998;5.864;2022-10-31T07:56:02;101493.44;;;12.81;97.03
48204;BME280;33994;50.998;5.864;2022-10-31T07:58:47;101488.94;;;12.88;97.21
48204;BME280;33994;50.998;5.864;2022-10-31T08:01:33;101484.53;;;12.93;97.20
48204;BME280;33994;50.998;5.864;2022-10-31T08:04:51;101489.59;;;13.04;96.95
48204;BME280;33994;50.998;5.864;2022-10-31T08:08:04;101485.13;;;13.10;96.94
48204;BME280;33994;50.998;5.864;2022-10-31T08:10:49;101480.66;;;13.15;96.70
48204;BME280;33994;50.998;5.864;2022-10-31T08:13:35;101483.25;;;13.20;96.35
48204;BME280;33994;50.998;5.864;2022-10-31T08:16:20;101481.38;;;13.27;96.09
48204;BME280;33994;50.998;5.864;2022-10-31T08:19:14;101475.16;;;13.32;95.87
48204;BME280;33994;50.998;5.864;2022-10-31T08:22:00;101474.22;;;13.36;95.71
48204;BME280;33994;50.998;5.864;2022-10-31T08:24:46;101465.44;;;13.39;95.41
48204;BME280;33994;50.998;5.864;2022-10-31T08:27:31;101462.78;;;13.41;95.39
48204;BME280;33994;50.998;5.864;2022-10-31T08:30:20;101462.78;;;13.41;94.95
48204;BME280;33994;50.998;5.864;2022-10-31T08:33:25;101449.59;;;13.42;95.00
48204;BME280;33994;50.998;5.864;2022-10-31T08:36:30;101444.41;;;13.39;94.51
48204;BME280;33994;50.998;5.864;2022-10-31T08:39:22;101435.72;;;13.35;94.34
48204;BME280;33994;50.998;5.864;2022-10-31T08:42:08;101437.53;;;13.32;94.12
48204;BME280;33994;50.998;5.864;2022-10-31T08:44:53;101433.22;;;13.28;94.09
48204;BME280;33994;50.998;5.864;2022-10-31T08:47:40;101432.34;;;13.27;94.30
48204;BME280;33994;50.998;5.864;2022-10-31T08:50:27;101424.53;;;13.24;94.47
48204;BME280;33994;50.998;5.864;2022-10-31T08:53:18;101422.78;;;13.23;94.65
48204;BME280;33994;50.998;5.864;2022-10-31T08:56:10;101409.66;;;13.23;94.86
48204;BME280;33994;50.998;5.864;2022-10-31T08:58:56;101415.75;;;13.25;95.10
48204;BME280;33994;50.998;5.864;2022-10-31T09:01:51;101409.56;;;13.28;95.22
48204;BME280;33994;50.998;5.864;2022-10-31T09:04:36;101402.53;;;13.30;95.31
48204;BME280;33994;50.998;5.864;2022-10-31T09:07:22;101398.09;;;13.33;95.46
48204;BME280;33994;50.998;5.864;2022-10-31T09:10:07;101401.53;;;13.38;95.67
48204;BME280;33994;50.998;5.864;2022-10-31T09:12:59;101390.94;;;13.42;95.78
48204;BME280;33994;50.998;5.864;2022-10-31T09:15:47;101382.09;;;13.46;95.87
48204;BME280;33994;50.998;5.864;2022-10-31T09:18:42;101397.81;;;13.49;95.85
48204;BME280;33994;50.998;5.864;2022-10-31T09:21:27;101371.53;;;13.52;95.84
48204;BME280;33994;50.998;5.864;2022-10-31T09:24:16;101388.06;;;13.57;95.84
48204;BME280;33994;50.998;5.864;2022-10-31T09:27:01;101387.09;;;13.61;95.93
48204;BME280;33994;50.998;5.864;2022-10-31T09:29:47;101383.53;;;13.65;95.77
48204;BME280;33994;50.998;5.864;2022-10-31T09:32:34;101385.22;;;13.69;95.73
48204;BME280;33994;50.998;5.864;2022-10-31T09:35:20;101371.13;;;13.73;95.62
48204;BME280;33994;50.998;5.864;2022-10-31T09:38:09;101372.81;;;13.77;95.38
48204;BME280;33994;50.998;5.864;2022-10-31T09:47:31;101347.28;;;13.82;94.99
48204;BME280;33994;50.998;5.864;2022-10-31T09:51:07;101348.88;;;13.90;94.72
48204;BME280;33994;50.998;5.864;2022-10-31T09:57:36;101333.81;;;13.98;94.58
48204;BME280;33994;50.998;5.864;2022-10-31T10:00:22;101328.44;;;14.04;94.44
48204;BME280;33994;50.998;5.864;2022-10-31T10:06:27;101303.75;;;14.11;94.64
48204;BME280;33994;50.998;5.864;2022-10-31T10:09:48;101302.66;;;14.20;94.48
48204;BME280;33994;50.998;5.864;2022-10-31T10:19:10;101327.59;;;14.41;94.17
48204;BME280;33994;50.998;5.864;2022-10-31T10:28:20;101315.75;;;14.60;93.94
48204;BME280;33994;50.998;5.864;2022-10-31T10:31:11;101328.75;;;14.69;93.84
48204;BME280;33994;50.998;5.864;2022-10-31T10:36:58;101327.56;;;14.81;93.73
48204;BME280;33994;50.998;5.864;2022-10-31T10:39:48;101323.91;;;14.87;93.84
48204;BME280;33994;50.998;5.864;2022-10-31T10:42:35;101322.84;;;14.94;93.69
48204;BME280;33994;50.998;5.864;2022-10-31T10:45:39;101311.25;;;15.01;93.49
48204;BME280;33994;50.998;5.864;2022-10-31T10:57:22;101265.00;;;15.23;92.76
48204;BME280;33994;50.998;5.864;2022-10-31T11:00:20;101270.16;;;15.28;92.58
48204;BME280;33994;50.998;5.864;2022-10-31T11:03:06;101272.66;;;15.32;92.28
48204;BME280;33994;50.998;5.864;2022-10-31T11:05:58;101274.22;;;15.40;92.08
48204;BME280;33994;50.998;5.864;2022-10-31T11:08:45;101280.19;;;15.46;92.02
48204;BME280;33994;50.998;5.864;2022-10-31T11:11:30;101271.28;;;15.50;91.72
48204;BME280;33994;50.998;5.864;2022-10-31T11:14:16;101263.25;;;15.55;91.36
48204;BME280;33994;50.998;5.864;2022-10-31T11:17:07;101257.88;;;15.58;90.61
48204;BME280;33994;50.998;5.864;2022-10-31T11:20:31;101256.81;;;15.65;89.42
48204;BME280;33994;50.998;5.864;2022-10-31T11:23:20;101244.31;;;15.72;88.91
48204;BME280;33994;50.998;5.864;2022-10-31T11:26:19;101244.19;;;15.76;88.21
48204;BME280;33994;50.998;5.864;2022-10-31T11:29:15;101232.66;;;15.80;87.41
48204;BME280;33994;50.998;5.864;2022-10-31T11:32:00;101227.28;;;15.84;87.70
48204;BME280;33994;50.998;5.864;2022-10-31T11:34:50;101222.78;;;15.87;87.24
48204;BME280;33994;50.998;5.864;2022-10-31T11:37:41;101213.88;;;15.91;86.72
48204;BME280;33994;50.998;5.864;2022-10-31T11:40:27;101212.88;;;15.94;86.49
48204;BME280;33994;50.998;5.864;2022-10-31T11:43:15;101203.16;;;15.96;86.07
48204;BME280;33994;50.998;5.864;2022-10-31T11:46:10;101188.09;;;15.99;85.81
48204;BME280;33994;50.998;5.864;2022-10-31T11:49:00;101183.63;;;16.01;85.52
48204;BME280;33994;50.998;5.864;2022-10-31T11:51:49;101176.53;;;16.03;85.37
48204;BME280;33994;50.998;5.864;2022-10-31T11:54:47;101173.84;;;16.05;85.50
48204;BME280;33994;50.998;5.864;2022-10-31T11:57:43;101175.59;;;16.06;85.46
48204;BME280;33994;50.998;5.864;2022-10-31T12:00:31;101167.63;;;16.08;85.42
48204;BME280;33994;50.998;5.864;2022-10-31T12:03:26;101157.91;;;16.08;85.20
48204;BME280;33994;50.998;5.864;2022-10-31T12:06:35;101150.84;;;16.10;85.38
48204;BME280;33994;50.998;5.864;2022-10-31T12:09:23;101157.72;;;16.14;85.50
48204;BME280;33994;50.998;5.864;2022-10-31T12:18:04;101122.31;;;16.21;84.95
48204;BME280;33994;50.998;5.864;2022-10-31T12:24:04;101112.34;;;16.29;84.53
48204;BME280;33994;50.998;5.864;2022-10-31T12:30:17;101099.06;;;16.33;84.77
48204;BME280;33994;50.998;5.864;2022-10-31T12:57:51;101031.38;;;16.55;82.80
48204;BME280;33994;50.998;5.864;2022-10-31T13:00:41;101026.78;;;16.60;82.98
48204;BME280;33994;50.998;5.864;2022-10-31T13:03:34;101014.28;;;16.65;82.87
48204;BME280;33994;50.998;5.864;2022-10-31T13:06:29;101022.09;;;16.68;82.65
48204;BME280;33994;50.998;5.864;2022-10-31T13:09:26;101017.59;;;16.70;82.41
48204;BME280;33994;50.998;5.864;2022-10-31T13:12:17;101001.63;;;16.75;82.16
48204;BME280;33994;50.998;5.864;2022-10-31T13:15:25;101006.78;;;16.78;81.98
48204;BME280;33994;50.998;5.864;2022-10-31T13:18:19;100998.81;;;16.80;82.16
48204;BME280;33994;50.998;5.864;2022-10-31T13:24:19;100990.78;;;16.83;81.85
48204;BME280;33994;50.998;5.864;2022-10-31T13:27:42;100975.81;;;16.82;81.88
48204;BME280;33994;50.998;5.864;2022-10-31T13:30:32;100961.72;;;16.83;81.82
48204;BME280;33994;50.998;5.864;2022-10-31T13:33:41;100951.16;;;16.83;81.89
48204;BME280;33994;50.998;5.864;2022-10-31T13:36:41;100946.72;;;16.83;81.79
48204;BME280;33994;50.998;5.864;2022-10-31T13:39:39;100940.59;;;16.83;81.62
48204;BME280;33994;50.998;5.864;2022-10-31T13:42:55;100943.22;;;16.83;81.40
48204;BME280;33994;50.998;5.864;2022-10-31T13:45:53;100930.03;;;16.83;81.20
48204;BME280;33994;50.998;5.864;2022-10-31T13:48:40;100917.59;;;16.85;81.19
48204;BME280;33994;50.998;5.864;2022-10-31T13:51:29;100917.50;;;16.88;81.13
48204;BME280;33994;50.998;5.864;2022-10-31T13:54:23;100896.28;;;16.89;80.84
48204;BME280;33994;50.998;5.864;2022-10-31T13:57:17;100894.53;;;16.90;80.86
48204;BME280;33994;50.998;5.864;2022-10-31T14:03:03;100907.66;;;16.91;80.58
48204;BME280;33994;50.998;5.864;2022-10-31T14:05:53;100911.03;;;16.95;80.04
48204;BME280;33994;50.998;5.864;2022-10-31T14:08:48;100904.94;;;16.93;79.32
48204;BME280;33994;50.998;5.864;2022-10-31T14:11:34;100904.06;;;16.94;79.09
48204;BME280;33994;50.998;5.864;2022-10-31T14:14:25;100915.50;;;16.93;78.89
48204;BME280;33994;50.998;5.864;2022-10-31T14:17:21;100911.97;;;16.94;79.05
48204;BME280;33994;50.998;5.864;2022-10-31T14:22:55;100903.84;;;16.98;78.57
48204;BME280;33994;50.998;5.864;2022-10-31T14:25:41;100895.94;;;16.98;78.37
48204;BME280;33994;50.998;5.864;2022-10-31T14:28:34;100884.56;;;16.96;77.15
48204;BME280;33994;50.998;5.864;2022-10-31T14:49:46;100853.13;;;16.90;76.26
48204;BME280;33994;50.998;5.864;2022-10-31T14:52:35;100845.25;;;16.89;76.29
48204;BME280;33994;50.998;5.864;2022-10-31T14:55:23;100842.59;;;16.89;76.35
48204;BME280;33994;50.998;5.864;2022-10-31T14:58:09;100840.88;;;16.88;76.37
48204;BME280;33994;50.998;5.864;2022-10-31T15:00:56;100837.50;;;16.84;76.47
48204;BME280;33994;50.998;5.864;2022-10-31T15:03:44;100835.78;;;16.83;76.33
48204;BME280;33994;50.998;5.864;2022-10-31T15:06:40;100826.31;;;16.77;76.57
48204;BME280;33994;50.998;5.864;2022-10-31T15:09:34;100826.56;;;16.71;76.63
48204;BME280;33994;50.998;5.864;2022-10-31T15:12:42;100828.50;;;16.66;76.75
48204;BME280;33994;50.998;5.864;2022-10-31T15:15:27;100818.22;;;16.60;76.82
48204;BME280;33994;50.998;5.864;2022-10-31T15:18:17;100818.44;;;16.54;76.88
48204;BME280;33994;50.998;5.864;2022-10-31T15:21:03;100811.56;;;16.50;77.22
48204;BME280;33994;50.998;5.864;2022-10-31T15:23:51;100799.53;;;16.43;77.54
48204;BME280;33994;50.998;5.864;2022-10-31T15:26:39;100804.06;;;16.39;78.05
48204;BME280;33994;50.998;5.864;2022-10-31T15:29:26;100809.50;;;16.36;78.10
48204;BME280;33994;50.998;5.864;2022-10-31T15:32:24;100814.91;;;16.32;78.27
48204;BME280;33994;50.998;5.864;2022-10-31T15:35:14;100800.19;;;16.26;78.53
48204;BME280;33994;50.998;5.864;2022-10-31T15:38:04;100805.66;;;16.21;78.69
48204;BME280;33994;50.998;5.864;2022-10-31T15:41:01;100801.47;;;16.16;79.00
48204;BME280;33994;50.998;5.864;2022-10-31T15:43:48;100795.44;;;16.12;79.24
48204;BME280;33994;50.998;5.864;2022-10-31T15:46:33;100800.97;;;16.06;79.23
48204;BME280;33994;50.998;5.864;2022-10-31T15:49:27;100792.34;;;16.01;79.40
48204;BME280;33994;50.998;5.864;2022-10-31T15:52:41;100793.47;;;15.95;79.47
48204;BME280;33994;50.998;5.864;2022-10-31T15:55:31;100791.00;;;15.91;79.45
48204;BME280;33994;50.998;5.864;2022-10-31T15:58:18;100789.41;;;15.87;79.74
48204;BME280;33994;50.998;5.864;2022-10-31T16:01:06;100785.13;;;15.83;79.97
48204;BME280;33994;50.998;5.864;2022-10-31T16:04:21;100783.59;;;15.77;80.47
48204;BME280;33994;50.998;5.864;2022-10-31T16:07:15;100775.81;;;15.72;80.67
48204;BME280;33994;50.998;5.864;2022-10-31T16:10:03;100781.22;;;15.69;80.66
48204;BME280;33994;50.998;5.864;2022-10-31T16:12:48;100781.31;;;15.66;81.09
48204;BME280;33994;50.998;5.864;2022-10-31T16:15:34;100776.28;;;15.60;81.03
48204;BME280;33994;50.998;5.864;2022-10-31T16:18:20;100771.97;;;15.57;81.26
48204;BME280;33994;50.998;5.864;2022-10-31T16:21:06;100765.09;;;15.53;81.41
48204;BME280;33994;50.998;5.864;2022-10-31T16:23:56;100766.97;;;15.50;81.80
48204;BME280;33994;50.998;5.864;2022-10-31T16:26:50;100773.28;;;15.46;81.79
48204;BME280;33994;50.998;5.864;2022-10-31T16:29:45;100764.63;;;15.42;81.84
48204;BME280;33994;50.998;5.864;2022-10-31T16:32:37;100769.06;;;15.40;82.17
48204;BME280;33994;50.998;5.864;2022-10-31T16:35:38;100776.19;;;15.38;82.27
48204;BME280;33994;50.998;5.864;2022-10-31T16:38:24;100775.34;;;15.38;82.11
48204;BME280;33994;50.998;5.864;2022-10-31T16:41:09;100790.28;;;15.37;82.41
48204;BME280;33994;50.998;5.864;2022-10-31T16:43:55;100788.63;;;15.35;82.36
48204;BME280;33994;50.998;5.864;2022-10-31T16:46:41;100787.78;;;15.32;82.54
48204;BME280;33994;50.998;5.864;2022-10-31T16:49:26;100778.19;;;15.31;82.78
48204;BME280;33994;50.998;5.864;2022-10-31T16:52:12;100775.53;;;15.31;82.68
48204;BME280;33994;50.998;5.864;2022-10-31T16:54:57;100773.81;;;15.30;82.60
48204;BME280;33994;50.998;5.864;2022-10-31T16:57:46;100771.19;;;15.30;82.79
48204;BME280;33994;50.998;5.864;2022-10-31T17:00:32;100764.16;;;15.31;82.60
48204;BME280;33994;50.998;5.864;2022-10-31T17:03:18;100765.97;;;15.29;82.70
48204;BME280;33994;50.998;5.864;2022-10-31T17:06:04;100754.56;;;15.28;82.72
48204;BME280;33994;50.998;5.864;2022-10-31T17:08:49;100749.41;;;15.25;82.82
48204;BME280;33994;50.998;5.864;2022-10-31T17:11:34;100751.25;;;15.23;82.66
48204;BME280;33994;50.998;5.864;2022-10-31T17:14:20;100748.69;;;15.22;82.84
48204;BME280;33994;50.998;5.864;2022-10-31T17:17:07;100748.81;;;15.17;82.93
48204;BME280;33994;50.998;5.864;2022-10-31T17:19:52;100741.91;;;15.15;83.15
48204;BME280;33994;50.998;5.864;2022-10-31T17:22:38;100734.13;;;15.10;83.43